sim
Sign-in with your pilot id or email,
or register
Callsign
Passwort

Schedule Details

Flight Number: DLH2713 (3)
Departure: Hamburg Airport (EDDH) at 09:00
Arrival: Munich Airport (EDDM) at 10:15
Route: Lufthansa Passenger Schedule. Enter filed route here before submitting Pirep.

Weather Information
Getting current METAR information for EDDH 201750Z 05006KT CAVOK 16/08 Q1020 NOSIG
Getting current METAR information for EDDM 201750Z 04003KT 010V070 CAVOK 16/11 Q1015 NOSIG

Schedule Frequency

Route Map